Sanborn, NY (14132)

1:17 AM EST on November 28, 2014 (GMT -0500)
Joanne Dr. | Change Station
CLOSE
Current Station
Personal Weather Station
Location: Sanborn, NY
Elevation: 643 ft
Nearby Weather Stations

Elev 643 ft 43.14 °N, 78.88 °W | Updated 1 second ago

Light Snow
Light Snow
26.6 °F
Feels Like 27 °F
N
0.0
Wind Variable Wind from North
Gusts 0.0 mph

Today
High -- | Low -- °F
--% Chance of Precip.
Yesterday
High -- | Low -- °F
Precip. -- in
7:24 AM 4:42 PM
Waxing Crescent, 37% visible
Pressure 30.20 in
Visibility 8.0 miles
Clouds Mostly Cloudy 3900 ft
Overcast 7000 ft
Windchill 27 °F
Dew Point 22 °F
Humidity 81%
Rainfall 0.00 in
Snow Depth Not available.
UV 0 out of 12
Pollen .10 out of 12
Air Quality Not available.
Flu Activity Not available.
METAR KIAG 280553Z AUTO 30013KT 8SM -SN BKN039 OVC070 M03/M08 A3015 RMK AO2 SLP226 P0000 60007 T10331078 11006 21033 52016

More Conditions Fewer Conditions

Pressure 30.20 in
Visibility 8.0 miles
Clouds Mostly Cloudy 3900 ft
Overcast 7000 ft
Windchill 27 °F
Dew Point 22 °F
Humidity 81%
Rainfall 0.00 in
Snow Depth Not available.
UV 0 out of 12
Pollen .10 out of 12
Air Quality Not available.
Flu Activity Not available.
METAR KIAG 280553Z AUTO 30013KT 8SM -SN BKN039 OVC070 M03/M08 A3015 RMK AO2 SLP226 P0000 60007 T10331078 11006 21033 52016

More Conditions Fewer Conditions

10-Day Weather Forecast

Almanac

Astronomy

Nov. 28, 2014 Rise Set
Actual Time
Civil Twilight
Nautical Twilight
Astronomical Twilight
Moon
Length of Visible Light
Length of Day
Tomorrow will be .
, % of the Moon is Illuminated

Today's Extremes

State Highs State Lows

Community

WunderPhotos

Upload Photos

1,774,197 photos uploaded!

WunderBlogs® & News

Nearby

Air Quality

  Air Quality AQ Index Pollutant
Not available.

Snow Depth

Station Depth Elevation

Earthquake Activity

City Distance Mag. Time & Date
Minimum magnitude displayed is 2.5.

Coastal Water Temperatures

Place Temperature

Nearby Weather Stations